IN85 weather

Bowlin Airport
Huntington, Indiana, United States

Public forecast

Using degrees Fahrenheit for public forecast. Weather courtesy of forecast.io.

Closest aviation weather report (METAR) to Bowlin Airport

Closest report is Huntington Municipal Airport, 1.5 nm (2.8 km) NE. Retrieved 2019/10/20 22:35 UTC (1 hour ago):

KHHG 202235Z AUTO 00000KT 10SM CLR 18/09 A2990 RMK AO2 T01770085

Closest aviation forecast (TAF) to Bowlin Airport

Closest forecast is Fort Wayne International Airport, 15.6 nm (28.9 km) ENE. Retrieved 2019/10/20 18:30 UTC (5 hours ago):

TAF KFWA 201728Z 2018/2118 VRB03KT P6SM SCT090 FM211200 13009KT P6SM -SHRA BKN090 FM211500 15017KT 6SM -SHRA OVC030